Time;durP1;ratioP1;P1;durP2;ratioP2;P2;SDS_P1;SDS_P2;PMS_P1;PMS_P2;Temp;Humidity;BMP_temperature;BMP_pressure;BME280_temperature;BME280_humidity;BME280_pressure;Samples;Min_cycle;Max_cycle;Signal;HPM_P1;HPM_P2
2024/03/19 00:01:18;;;;;;;55.47;29.90;;;;;;;7.90;100.00;100638.47;10370994;28;20030;-82
2024/03/19 00:06:19;;;;;;;51.88;28.88;;;;;;;7.87;100.00;100636.00;10365877;28;20045;-82
2024/03/19 00:11:20;;;;;;;54.92;30.80;;;;;;;7.83;100.00;100628.25;10357056;28;20026;-82
2024/03/19 00:16:21;;;;;;;54.10;29.77;;;;;;;7.77;100.00;100626.00;10394167;28;20044;-82
2024/03/19 00:21:21;;;;;;;55.10;29.50;;;;;;;7.68;100.00;100631.00;10397667;28;20681;-82
2024/03/19 00:26:22;;;;;;;60.00;31.10;;;;;;;7.69;100.00;100624.66;10382926;28;20165;-82
2024/03/19 00:31:23;;;;;;;60.58;31.48;;;;;;;7.67;100.00;100628.41;10365964;28;20045;-82
2024/03/19 00:36:25;;;;;;;60.08;32.25;;;;;;;7.67;100.00;100634.59;10389354;28;20049;-81
2024/03/19 00:41:26;;;;;;;56.42;31.27;;;;;;;7.65;100.00;100638.31;10379456;28;20484;-81
2024/03/19 00:46:27;;;;;;;63.00;32.38;;;;;;;7.62;100.00;100635.84;10399371;28;20040;-81
2024/03/19 00:51:28;;;;;;;62.75;33.15;;;;;;;7.52;100.00;100635.59;10375604;28;20111;-81
2024/03/19 00:56:29;;;;;;;63.13;32.17;;;;;;;7.50;100.00;100638.38;10376747;28;20048;-82
2024/03/19 01:01:31;;;;;;;63.83;32.85;;;;;;;7.47;100.00;100640.38;10385404;28;20423;-81
2024/03/19 01:06:32;;;;;;;65.65;33.20;;;;;;;7.44;100.00;100641.44;10399507;28;20045;-81
2024/03/19 01:11:33;;;;;;;64.35;33.28;;;;;;;7.44;100.00;100640.59;10403827;28;20087;-82
2024/03/19 01:16:34;;;;;;;65.75;31.90;;;;;;;7.35;100.00;100643.81;10373525;28;20052;-82
2024/03/19 01:21:34;;;;;;;59.20;31.40;;;;;;;7.31;100.00;100635.16;10367361;28;20041;-82
2024/03/19 01:26:35;;;;;;;57.13;32.15;;;;;;;7.23;100.00;100637.44;10364684;28;20065;-81
2024/03/19 01:31:36;;;;;;;57.58;31.08;;;;;;;7.18;100.00;100629.72;10386884;28;20045;-81
2024/03/19 01:36:37;;;;;;;61.53;33.28;;;;;;;7.15;100.00;100642.41;10384145;28;20613;-82
2024/03/19 01:41:39;;;;;;;61.25;34.92;;;;;;;7.09;100.00;100635.66;10395344;28;20242;-83
2024/03/19 01:46:40;;;;;;;67.80;34.42;;;;;;;7.06;100.00;100634.03;10406937;28;20021;-82
2024/03/19 01:51:42;;;;;;;73.93;36.33;;;;;;;7.06;100.00;100633.16;10406225;28;20079;-81
2024/03/19 01:56:44;;;;;;;71.40;38.03;;;;;;;7.03;100.00;100625.34;10379414;28;20038;-83
2024/03/19 02:01:44;;;;;;;66.57;34.97;;;;;;;7.04;100.00;100635.06;10376652;28;20046;-83
2024/03/19 02:06:45;;;;;;;62.35;33.95;;;;;;;7.01;100.00;100625.44;10382954;28;20514;-83
2024/03/19 02:11:46;;;;;;;68.25;36.60;;;;;;;6.99;100.00;100631.81;10364182;28;20091;-83
2024/03/19 02:16:47;;;;;;;67.55;35.42;;;;;;;6.95;100.00;100624.97;10394018;28;20034;-82
2024/03/19 02:21:47;;;;;;;71.28;34.85;;;;;;;6.95;100.00;100619.63;10376785;28;20049;-83
2024/03/19 02:26:48;;;;;;;66.50;33.70;;;;;;;6.93;100.00;100616.19;10370894;28;20505;-83
2024/03/19 02:31:49;;;;;;;66.72;34.50;;;;;;;6.88;100.00;100616.47;10358598;28;20073;-82
2024/03/19 02:36:50;;;;;;;73.47;37.95;;;;;;;6.76;100.00;100612.72;10355664;28;20046;-83
2024/03/19 02:41:51;;;;;;;74.20;37.83;;;;;;;6.80;100.00;100608.03;10367666;28;20045;-82
2024/03/19 02:46:52;;;;;;;76.17;36.60;;;;;;;6.82;100.00;100614.16;10367800;28;20116;-82
2024/03/19 02:51:53;;;;;;;70.57;35.70;;;;;;;6.80;100.00;100606.25;10379373;28;20187;-82
2024/03/19 02:56:53;;;;;;;75.32;37.17;;;;;;;6.78;100.00;100599.28;10367640;28;20057;-82
2024/03/19 03:01:56;;;;;;;75.50;37.78;;;;;;;6.77;100.00;100606.41;10379151;28;20080;-82
2024/03/19 03:06:56;;;;;;;;;;;;;;;6.72;100.00;100595.19;10379205;28;20567;-82
2024/03/19 03:11:57;;;;;;;76.93;36.42;;;;;;;6.67;100.00;100593.75;10389319;28;20035;-83
2024/03/19 03:16:58;;;;;;;82.18;39.42;;;;;;;6.62;100.00;100600.22;10358543;28;20049;-82
2024/03/19 03:21:59;;;;;;;76.45;36.50;;;;;;;6.64;100.00;100602.81;10364277;28;20061;-83
2024/03/19 03:26:59;;;;;;;68.70;36.25;;;;;;;6.63;100.00;100611.75;10360857;28;20072;-82
2024/03/19 03:32:00;;;;;;;69.22;34.75;;;;;;;6.58;100.00;100609.38;10386184;28;20077;-82
2024/03/19 03:37:02;;;;;;;69.72;35.17;;;;;;;6.53;100.00;100607.94;10350674;28;20049;-83
2024/03/19 03:42:03;;;;;;;73.97;36.78;;;;;;;6.49;100.00;100601.91;10361790;28;20045;-83
2024/03/19 03:47:03;;;;;;;73.45;36.88;;;;;;;6.46;100.00;100603.91;10356282;28;20095;-82
2024/03/19 03:52:04;;;;;;;79.20;38.63;;;;;;;6.48;100.00;100596.69;10369211;28;20516;-82
2024/03/19 03:57:05;;;;;;;77.82;35.92;;;;;;;6.44;100.00;100606.66;10338320;28;20053;-83
2024/03/19 04:02:06;;;;;;;70.60;36.40;;;;;;;6.37;100.00;100600.84;10346415;28;20594;-83
2024/03/19 04:07:07;;;;;;;78.63;37.67;;;;;;;6.29;100.00;100596.91;10373180;28;20044;-82
2024/03/19 04:12:08;;;;;;;76.78;36.33;;;;;;;6.27;100.00;100601.47;10369618;28;20041;-82
2024/03/19 04:17:12;;;;;;;78.50;37.95;;;;;;;6.26;100.00;100600.63;10373632;28;20142;-82
2024/03/19 04:22:12;;;;;;;81.10;36.58;;;;;;;6.23;100.00;100607.97;10384546;28;20057;-82
2024/03/19 04:27:13;;;;;;;78.63;38.35;;;;;;;6.25;100.00;100612.22;10404237;28;20075;-83
2024/03/19 04:32:14;;;;;;;75.97;37.97;;;;;;;6.26;100.00;100608.63;10365421;28;20057;-82
2024/03/19 04:37:15;;;;;;;79.45;35.60;;;;;;;6.27;100.00;100607.66;10371044;28;20053;-82
2024/03/19 04:42:18;;;;;;;81.07;35.42;;;;;;;6.26;100.00;100613.13;10352787;28;20524;-83
2024/03/19 04:47:19;;;;;;;64.20;33.65;;;;;;;6.25;100.00;100617.56;10387051;28;20100;-83
2024/03/19 04:52:20;;;;;;;68.93;33.67;;;;;;;6.18;100.00;100614.41;10371277;28;20485;-82
2024/03/19 04:57:21;;;;;;;69.05;33.85;;;;;;;6.25;100.00;100619.38;10354338;28;20041;-82
2024/03/19 05:02:22;;;;;;;75.47;33.90;;;;;;;6.23;100.00;100618.63;10358081;28;20117;-82
2024/03/19 05:07:22;;;;;;;65.65;33.00;;;;;;;6.32;100.00;100621.59;10383902;28;20125;-83
2024/03/19 05:12:23;;;;;;;63.42;31.65;;;;;;;6.33;100.00;100633.13;10366487;28;20057;-83
2024/03/19 05:17:24;;;;;;;62.33;32.17;;;;;;;6.30;100.00;100641.31;10379844;28;20045;-82
2024/03/19 05:22:25;;;;;;;62.30;31.27;;;;;;;6.34;100.00;100641.06;10367250;28;20091;-82
2024/03/19 05:27:26;;;;;;;63.72;32.63;;;;;;;6.35;100.00;100652.56;10367319;28;20042;-83
2024/03/19 05:32:26;;;;;;;62.47;32.55;;;;;;;6.36;100.00;100649.84;10365395;28;20048;-82
2024/03/19 05:37:27;;;;;;;57.25;31.05;;;;;;;6.39;100.00;100654.97;10396103;28;20037;-82
2024/03/19 05:42:28;;;;;;;50.72;28.38;;;;;;;6.43;100.00;100655.66;10349937;28;20887;-82
2024/03/19 05:47:31;;;;;;;56.58;29.92;;;;;;;6.44;100.00;100649.34;10374368;28;20214;-82
2024/03/19 05:52:32;;;;;;;58.22;29.73;;;;;;;6.49;100.00;100655.28;10355681;28;20061;-83
2024/03/19 05:57:33;;;;;;;68.80;31.63;;;;;;;6.57;100.00;100658.34;10372152;28;20050;-82
2024/03/19 06:02:34;;;;;;;56.97;30.58;;;;;;;6.73;100.00;100668.97;10376538;28;20045;-82
2024/03/19 06:07:34;;;;;;;59.30;31.33;;;;;;;6.80;100.00;100673.00;10358063;28;20061;-83
2024/03/19 06:12:36;;;;;;;60.55;32.45;;;;;;;6.95;100.00;100673.03;10377765;28;20069;-82
2024/03/19 06:17:37;;;;;;;64.37;30.63;;;;;;;7.10;100.00;100671.22;10369078;28;20042;-82
2024/03/19 06:22:37;;;;;;;51.67;29.27;;;;;;;7.19;100.00;100674.19;10386510;28;20497;-83
2024/03/19 06:27:38;;;;;;;54.50;29.90;;;;;;;7.24;100.00;100679.25;10389189;28;20076;-82
2024/03/19 06:32:39;;;;;;;53.53;29.77;;;;;;;7.22;100.00;100684.69;10419335;28;20057;-81
2024/03/19 06:37:41;;;;;;;52.58;29.85;;;;;;;7.21;100.00;100692.78;10415134;28;20030;-82
2024/03/19 06:42:42;;;;;;;;;;;;;;;7.20;100.00;100697.28;10380831;28;20046;-83
2024/03/19 06:47:44;;;;;;;50.40;26.90;;;;;;;7.29;100.00;100703.88;10364183;28;19955;-82
2024/03/19 06:52:45;;;;;;;56.45;29.90;;;;;;;7.18;100.00;100706.34;10379566;28;20152;-82
2024/03/19 06:57:47;;;;;;;48.72;28.27;;;;;;;7.33;100.00;100707.22;10387620;28;20045;-82
2024/03/19 07:02:49;;;;;;;63.30;33.13;;;;;;;7.60;100.00;100707.31;10399503;28;20053;-82
2024/03/19 07:07:52;;;;;;;48.53;28.50;;;;;;;7.70;99.38;100711.94;10374292;28;20069;-82
2024/03/19 07:12:53;;;;;;;43.03;25.35;;;;;;;7.78;97.97;100713.28;10369774;28;20044;-82
2024/03/19 07:17:54;;;;;;;46.22;27.15;;;;;;;7.81;97.79;100716.59;10374958;28;20041;-81
2024/03/19 07:22:54;;;;;;;41.97;26.13;;;;;;;7.79;97.16;100718.53;10352630;28;20742;-82
2024/03/19 07:27:55;;;;;;;43.70;25.67;;;;;;;7.95;95.91;100727.31;10384496;28;20520;-83
2024/03/19 07:32:57;;;;;;;43.67;24.48;;;;;;;8.04;96.48;100725.84;10377914;28;20721;-81
2024/03/19 07:37:58;;;;;;;47.47;26.67;;;;;;;8.39;95.73;100725.31;10357535;28;20041;-81
2024/03/19 07:42:59;;;;;;;42.10;26.50;;;;;;;9.18;93.10;100732.47;10381643;28;20053;-81
2024/03/19 07:48:04;;;;;;;44.72;25.35;;;;;;;9.51;89.02;100741.78;10368299;28;20034;-81
2024/03/19 07:53:05;;;;;;;44.25;26.60;;;;;;;9.57;87.83;100745.84;10363564;28;20080;-81
2024/03/19 07:58:06;;;;;;;50.90;26.38;;;;;;;9.80;87.01;100739.69;10375763;28;20033;-80
2024/03/19 08:03:08;;;;;;;44.55;25.27;;;;;;;9.77;86.16;100758.72;10360615;28;20100;-81
2024/03/19 08:08:09;;;;;;;44.42;26.77;;;;;;;9.71;86.95;100762.69;10379384;28;20045;-81
2024/03/19 08:13:10;;;;;;;50.25;28.17;;;;;;;10.05;87.26;100759.44;10388437;28;20512;-81
2024/03/19 08:18:11;;;;;;;49.80;27.80;;;;;;;10.31;86.22;100760.19;10375220;28;20128;-82
2024/03/19 08:23:15;;;;;;;48.50;28.02;;;;;;;10.16;85.75;100767.53;10399708;28;20044;-82
2024/03/19 08:28:15;;;;;;;48.42;26.80;;;;;;;10.25;87.53;100769.53;10365788;28;20049;-82
2024/03/19 08:33:16;;;;;;;50.08;26.50;;;;;;;10.75;86.90;100773.00;10385275;28;20045;-80
2024/03/19 08:38:17;;;;;;;47.25;27.08;;;;;;;10.94;83.67;100764.38;10410672;28;20046;-82
2024/03/19 08:43:18;;;;;;;49.20;28.27;;;;;;;10.89;86.52;100754.94;10375069;28;20041;-81
2024/03/19 08:48:19;;;;;;;49.50;25.98;;;;;;;11.03;85.05;100747.53;10399545;28;20092;-82
2024/03/19 08:53:21;;;;;;;51.27;27.73;;;;;;;11.86;82.69;100753.63;10386091;28;20037;-82
2024/03/19 08:58:22;;;;;;;46.08;26.67;;;;;;;12.33;78.11;100768.63;10374766;28;20045;-82
2024/03/19 09:03:23;;;;;;;45.45;25.27;;;;;;;12.70;75.99;100770.97;10383700;28;20045;-82
2024/03/19 09:08:24;;;;;;;44.38;24.20;;;;;;;12.80;75.41;100781.81;10373410;28;20126;-82
2024/03/19 09:13:25;;;;;;;44.83;25.00;;;;;;;12.58;77.82;100788.16;10384365;28;20513;-82
2024/03/19 09:18:26;;;;;;;42.65;24.88;;;;;;;12.35;77.22;100795.44;10375466;28;20041;-83
2024/03/19 09:23:27;;;;;;;44.13;23.33;;;;;;;11.76;78.95;100793.88;10381963;28;20046;-82
2024/03/19 09:28:31;;;;;;;47.50;24.27;;;;;;;11.77;81.91;100787.53;10377836;28;20053;-82
2024/03/19 09:33:32;;;;;;;41.97;22.33;;;;;;;11.77;80.84;100794.75;10383051;28;20049;-82
2024/03/19 09:38:32;;;;;;;41.58;24.08;;;;;;;11.63;81.62;100785.09;10403928;28;20057;-82
2024/03/19 09:43:35;;;;;;;47.17;24.75;;;;;;;11.46;83.24;100789.97;10357269;28;20053;-82
2024/03/19 09:48:38;;;;;;;46.30;23.17;;;;;;;11.18;86.24;100787.69;10370982;28;20091;-82
2024/03/19 09:53:41;;;;;;;45.78;24.45;;;;;;;11.05;88.95;100785.03;10386254;28;20049;-81
2024/03/19 09:58:42;;;;;;;43.33;21.75;;;;;;;10.78;87.23;100780.81;10397088;28;20489;-81
2024/03/19 10:03:43;;;;;;;39.55;18.60;;;;;;;11.01;84.95;100783.59;10403258;28;20045;-81
2024/03/19 10:08:45;;;;;;;36.88;18.25;;;;;;;11.22;82.42;100778.44;10354687;28;20052;-80
2024/03/19 10:13:48;;;;;;;34.67;17.60;;;;;;;11.33;81.07;100778.44;10380653;28;20041;-79
2024/03/19 10:18:48;;;;;;;;;;;;;;;11.67;77.79;100776.63;10379305;28;20125;-79
2024/03/19 10:23:49;;;;;;;32.38;16.65;;;;;;;12.00;76.98;100777.59;10374246;28;19984;-81
2024/03/19 10:28:52;;;;;;;25.83;14.27;;;;;;;12.38;74.35;100768.25;10366202;28;20041;-82
2024/03/19 10:33:58;;;;;;;32.88;14.55;;;;;;;12.57;72.55;100771.13;10396505;28;20091;-82
2024/03/19 10:39:05;;;;;;;26.88;14.68;;;;;;;12.58;72.83;100762.03;10403648;28;20045;-80
2024/03/19 10:44:15;;;;;;;30.88;16.42;;;;;;;12.72;72.97;100762.72;10400026;28;20050;-82
2024/03/19 10:49:19;;;;;;;33.72;14.98;;;;;;;13.71;67.99;100746.06;10398197;28;20545;-82
2024/03/19 10:54:22;;;;;;;25.00;14.95;;;;;;;14.98;63.10;100743.59;10357374;28;20057;-82
2024/03/19 10:59:23;;;;;;;27.30;16.35;;;;;;;14.55;60.49;100750.28;10380757;28;20045;-82
2024/03/19 11:04:27;;;;;;;28.48;16.20;;;;;;;15.08;61.39;100741.69;10365604;28;20097;-82
2024/03/19 11:09:30;;;;;;;28.23;16.02;;;;;;;15.83;58.46;100747.19;10330142;28;20045;-82
2024/03/19 11:14:32;;;;;;;25.38;15.68;;;;;;;16.61;56.67;100739.44;10342726;28;20191;-81
2024/03/19 11:19:36;;;;;;;26.08;16.67;;;;;;;17.03;53.98;100731.50;10339639;28;20110;-82
2024/03/19 11:24:40;;;;;;;24.00;15.43;;;;;;;17.41;52.35;100728.53;10334355;28;20051;-80
2024/03/19 11:29:41;;;;;;;27.35;15.35;;;;;;;17.31;51.79;100736.81;10341713;28;20137;-84
2024/03/19 11:40:12;;;;;;;26.90;17.02;;;;;;;17.93;49.78;100728.44;10272201;23;20047;-84
2024/03/19 11:45:15;;;;;;;27.55;15.90;;;;;;;18.44;50.31;100723.03;10186581;29;20039;-84
2024/03/19 11:50:18;;;;;;;30.10;17.30;;;;;;;17.57;49.51;100723.22;10172469;29;20048;-83
2024/03/19 11:55:21;;;;;;;28.95;16.60;;;;;;;16.77;52.83;100715.19;10181772;29;20055;-83
2024/03/19 12:00:22;;;;;;;33.08;18.02;;;;;;;17.28;54.04;100704.56;10151658;28;20052;-83
2024/03/19 12:05:24;;;;;;;32.13;17.90;;;;;;;19.50;47.53;100706.66;10129582;28;20065;-83
2024/03/19 12:10:26;;;;;;;24.23;13.88;;;;;;;20.43;44.14;100710.50;10146323;28;20079;-83
2024/03/19 12:15:27;;;;;;;29.67;13.00;;;;;;;21.11;42.63;100700.56;10127505;28;21075;-82
2024/03/19 12:20:28;;;;;;;21.45;12.80;;;;;;;21.30;41.38;100693.72;10126010;29;20048;-83
2024/03/19 12:25:34;;;;;;;22.05;13.18;;;;;;;20.09;42.93;100700.78;10138102;29;20661;-83
2024/03/19 12:30:38;;;;;;;22.25;14.02;;;;;;;19.64;44.84;100697.78;10169896;28;20130;-83
2024/03/19 12:35:40;;;;;;;24.38;14.60;;;;;;;18.82;45.46;100693.50;10162630;28;20048;-83
2024/03/19 12:40:41;;;;;;;21.10;12.85;;;;;;;18.31;47.65;100686.28;10139676;28;20432;-83
2024/03/19 12:45:41;;;;;;;26.77;13.48;;;;;;;18.27;47.78;100689.53;10096210;28;20063;-83
2024/03/19 12:50:42;;;;;;;21.52;12.55;;;;;;;18.17;47.98;100676.06;10120734;29;20055;-83
2024/03/19 12:55:43;;;;;;;20.35;12.57;;;;;;;17.83;47.81;100676.13;10151610;28;20052;-83
2024/03/19 13:00:46;;;;;;;20.00;12.48;;;;;;;19.54;45.89;100664.41;10128985;28;20054;-83
2024/03/19 13:05:47;;;;;;;23.27;13.13;;;;;;;21.91;40.21;100663.44;10138919;28;20131;-82
2024/03/19 13:10:48;;;;;;;20.43;12.23;;;;;;;19.07;42.13;100659.78;10156302;28;20467;-83
2024/03/19 13:15:49;;;;;;;19.58;12.05;;;;;;;17.02;45.75;100664.66;10137710;29;20056;-85
2024/03/19 13:20:49;;;;;;;25.52;13.35;;;;;;;16.78;48.05;100661.75;10135187;28;20048;-84
2024/03/19 13:25:50;;;;;;;21.17;12.23;;;;;;;18.73;45.34;100663.53;10155803;28;20052;-83
2024/03/19 13:30:51;;;;;;;18.08;11.85;;;;;;;21.40;38.95;100665.06;10130758;28;20069;-83
2024/03/19 13:35:52;;;;;;;20.85;12.02;;;;;;;20.15;40.29;100671.94;10160140;28;20743;-85
2024/03/19 13:40:52;;;;;;;14.80;11.70;;;;;;;17.95;43.40;100677.50;10161665;29;20071;-83
2024/03/19 13:46:02;;;;;;;20.65;13.73;;;;;;;17.65;46.72;100674.34;10132434;29;20047;-85
2024/03/19 13:51:03;;;;;;;18.38;12.48;;;;;;;16.50;47.05;100675.44;10099075;28;20522;-84
2024/03/19 13:56:05;;;;;;;17.70;11.52;;;;;;;16.10;47.90;100686.75;10123980;28;20059;-83
2024/03/19 14:01:06;;;;;;;25.65;13.18;;;;;;;15.73;48.89;100673.25;10140347;29;20060;-84
2024/03/19 14:06:07;;;;;;;20.47;13.07;;;;;;;17.21;46.25;100668.19;10125697;29;20055;-82
2024/03/19 14:11:10;;;;;;;22.17;12.85;;;;;;;16.86;47.02;100667.25;10139166;28;20189;-84
2024/03/19 14:16:11;;;;;;;21.90;14.00;;;;;;;16.59;49.10;100665.50;10148655;28;20055;-86
2024/03/19 14:21:14;;;;;;;19.00;12.15;;;;;;;16.31;47.54;100664.75;10118374;28;20054;-85
2024/03/19 14:26:15;;;;;;;20.25;13.25;;;;;;;16.39;48.41;100658.56;10110165;28;20084;-86
2024/03/19 14:31:16;;;;;;;27.13;13.48;;;;;;;16.51;47.20;100662.72;10132676;29;20142;-86
2024/03/19 14:36:17;;;;;;;21.08;13.90;;;;;;;16.86;47.62;100659.13;10150121;28;20105;-86
2024/03/19 14:41:18;;;;;;;19.92;12.50;;;;;;;16.10;48.28;100667.75;10136007;28;20054;-86
2024/03/19 14:46:19;;;;;;;22.67;12.88;;;;;;;15.26;50.87;100669.59;10134051;28;20068;-84
2024/03/19 14:51:20;;;;;;;16.80;10.85;;;;;;;15.82;48.86;100656.94;10101816;29;20087;-85
2024/03/19 14:56:21;;;;;;;14.52;9.32;;;;;;;15.83;48.79;100655.09;10118835;29;21014;-87
2024/03/19 15:01:25;;;;;;;17.83;10.40;;;;;;;16.13;48.29;100657.47;10129196;28;20183;-85
2024/03/19 15:06:26;;;;;;;25.35;11.73;;;;;;;15.89;49.01;100665.34;10144548;28;20571;-86
2024/03/19 15:11:26;;;;;;;17.60;10.88;;;;;;;16.35;48.00;100660.75;10115688;29;20127;-87
2024/03/19 15:16:27;;;;;;;14.73;10.80;;;;;;;16.28;48.27;100662.38;10112526;29;20063;-87
2024/03/19 15:21:30;;;;;;;15.18;8.55;;;;;;;16.38;46.64;100665.00;10144814;28;20048;-85
2024/03/19 15:26:31;;;;;;;;;;;;;;;15.81;47.48;100673.34;10127673;28;20052;-85
2024/03/19 15:31:32;;;;;;;13.80;8.05;;;;;;;15.92;47.14;100673.16;10119784;28;19931;-86
2024/03/19 15:36:32;;;;;;;14.52;9.07;;;;;;;15.83;47.55;100665.94;10127336;29;20944;-85
2024/03/19 15:41:34;;;;;;;13.10;9.20;;;;;;;15.54;49.24;100676.91;10122244;28;20058;-85
2024/03/19 15:46:35;;;;;;;17.38;10.25;;;;;;;15.97;48.98;100670.84;10124906;28;20084;-86
2024/03/19 15:51:36;;;;;;;13.90;9.65;;;;;;;16.12;48.68;100677.41;10116554;29;20163;-86
2024/03/19 15:56:36;;;;;;;16.05;10.20;;;;;;;16.02;48.55;100675.81;10131305;28;20135;-86
2024/03/19 16:01:38;;;;;;;13.27;9.20;;;;;;;16.78;46.27;100676.22;10108782;29;20485;-87
2024/03/19 16:06:38;;;;;;;12.93;9.07;;;;;;;16.45;46.94;100656.06;10124188;28;20048;-87
2024/03/19 16:11:39;;;;;;;16.70;10.77;;;;;;;16.08;48.51;100665.19;10124980;29;20055;-87
2024/03/19 16:16:40;;;;;;;14.18;10.85;;;;;;;15.84;49.29;100670.34;10123982;29;20056;-87
2024/03/19 16:21:45;;;;;;;15.73;9.85;;;;;;;15.89;48.85;100668.03;10096595;29;20075;-87
2024/03/19 16:26:46;;;;;;;14.15;9.82;;;;;;;16.00;49.16;100667.81;10113082;29;20071;-87
2024/03/19 16:31:48;;;;;;;14.50;10.23;;;;;;;16.09;49.05;100669.59;10098104;29;20076;-87
2024/03/19 16:36:50;;;;;;;20.73;10.68;;;;;;;16.14;48.54;100672.69;10130368;29;20060;-87
2024/03/19 16:41:51;;;;;;;15.30;9.88;;;;;;;16.03;48.93;100678.34;10149931;28;20052;-87
2024/03/19 16:46:52;;;;;;;15.32;9.27;;;;;;;15.81;48.63;100682.34;10118957;29;20052;-87
2024/03/19 16:51:54;;;;;;;15.03;9.33;;;;;;;15.66;49.31;100687.41;10128978;28;21154;-87
2024/03/19 16:56:55;;;;;;;16.40;10.18;;;;;;;15.53;49.67;100677.94;10126660;28;20113;-87
2024/03/19 17:01:56;;;;;;;13.93;9.63;;;;;;;15.37;49.64;100692.94;10126697;29;20681;-86
2024/03/19 17:06:59;;;;;;;15.48;10.07;;;;;;;15.20;50.74;100694.53;10141104;28;20047;-88
2024/03/19 17:12:00;;;;;;;12.32;8.32;;;;;;;15.03;50.19;100706.97;10153396;28;20059;-87
2024/03/19 17:17:01;;;;;;;18.75;9.20;;;;;;;14.92;50.16;100717.09;10174756;28;20716;-87
2024/03/19 17:22:02;;;;;;;11.38;8.93;;;;;;;14.82;49.70;100715.25;10145510;28;20058;-87
2024/03/19 17:27:03;;;;;;;11.82;8.13;;;;;;;14.74;49.52;100707.00;10145587;28;20052;-87
2024/03/19 17:32:05;;;;;;;13.38;8.05;;;;;;;14.72;49.89;100713.56;10136389;28;20052;-87
2024/03/19 17:37:06;;;;;;;11.80;7.57;;;;;;;14.63;50.77;100717.97;10130549;29;20057;-87
2024/03/19 17:42:07;;;;;;;23.20;12.30;;;;;;;14.55;51.41;100717.84;10127982;29;20281;-88
2024/03/19 17:47:08;;;;;;;21.52;10.70;;;;;;;14.47;52.40;100732.06;10102999;29;20080;-88
2024/03/19 17:52:36;;;;;;;15.93;10.52;;;;;;;14.44;52.51;100731.50;10152983;28;20055;-87
2024/03/19 17:57:38;;;;;;;13.88;9.32;;;;;;;14.40;52.40;100721.94;10146717;28;20661;-88
2024/03/19 18:02:42;;;;;;;20.13;12.68;;;;;;;14.35;52.55;100723.19;10165885;28;20143;-87
2024/03/19 18:07:44;;;;;;;15.95;11.10;;;;;;;14.25;53.39;100719.63;10127000;29;20127;-88
2024/03/19 18:12:48;;;;;;;15.02;9.00;;;;;;;14.13;54.39;100732.41;10180497;28;20059;-84
2024/03/19 18:17:50;;;;;;;16.27;9.75;;;;;;;14.03;55.32;100725.28;10166027;28;20071;-86
2024/03/19 18:22:52;;;;;;;25.45;14.82;;;;;;;13.91;56.44;100728.09;10142487;29;20052;-85
2024/03/19 18:27:53;;;;;;;29.65;17.92;;;;;;;13.87;56.89;100729.34;10174109;28;20142;-86
2024/03/19 18:32:58;;;;;;;19.40;12.80;;;;;;;13.84;56.64;100744.97;10150658;28;20072;-86
2024/03/19 18:38:00;;;;;;;20.45;12.02;;;;;;;13.83;57.52;100749.53;10179165;29;20067;-88
2024/03/19 18:43:01;;;;;;;25.80;15.93;;;;;;;13.82;57.64;100738.84;10137866;28;20048;-88
2024/03/19 18:48:02;;;;;;;21.20;15.52;;;;;;;13.83;57.95;100740.56;10129267;29;20676;-86
2024/03/19 18:53:03;;;;;;;27.95;17.58;;;;;;;13.69;59.35;100741.81;10128618;28;20141;-86
2024/03/19 18:58:04;;;;;;;22.73;15.82;;;;;;;13.67;60.27;100741.06;10131462;28;20056;-86
2024/03/19 19:03:06;;;;;;;25.02;15.00;;;;;;;13.64;60.67;100746.75;10122387;28;20056;-86
2024/03/19 19:08:08;;;;;;;28.73;17.27;;;;;;;13.59;61.05;100749.00;10129455;28;20063;-88
2024/03/19 19:13:08;;;;;;;19.50;14.30;;;;;;;13.53;60.78;100747.69;10128848;28;20080;-86
2024/03/19 19:18:10;;;;;;;24.50;14.20;;;;;;;13.53;60.44;100747.69;10171210;28;20770;-87
2024/03/19 19:23:11;;;;;;;21.27;14.80;;;;;;;13.47;61.05;100750.94;10116542;28;20084;-86
2024/03/19 19:28:11;;;;;;;27.25;16.08;;;;;;;13.41;61.86;100748.75;10108605;29;20086;-88
2024/03/19 19:33:17;;;;;;;23.23;16.45;;;;;;;13.41;62.11;100756.84;10127514;28;20055;-87
2024/03/19 19:38:19;;;;;;;27.98;15.50;;;;;;;13.39;62.22;100756.16;10104831;29;20056;-86
2024/03/19 19:43:21;;;;;;;21.25;15.35;;;;;;;13.36;62.13;100761.78;10151138;29;20726;-87
2024/03/19 19:48:22;;;;;;;24.98;15.75;;;;;;;13.32;62.14;100763.88;10159613;28;20054;-88
2024/03/19 19:53:22;;;;;;;23.38;16.02;;;;;;;13.30;62.04;100760.44;10152406;29;20155;-84
2024/03/19 19:58:23;;;;;;;27.00;18.27;;;;;;;13.27;62.39;100764.28;10114559;28;21028;-88
2024/03/19 20:03:25;;;;;;;25.83;15.30;;;;;;;13.19;62.45;100744.34;10163460;28;20110;-87
2024/03/19 20:08:26;;;;;;;25.33;17.20;;;;;;;13.03;63.43;100753.75;10117253;29;20074;-86
2024/03/19 20:13:28;;;;;;;27.00;17.70;;;;;;;12.92;64.21;100758.38;10100429;29;20060;-86
2024/03/19 20:18:29;;;;;;;;;;;;;;;12.89;64.96;100759.50;10110316;29;20127;-88
2024/03/19 20:23:31;;;;;;;38.17;21.02;;;;;;;12.90;65.01;100763.88;10098300;29;21039;-86
2024/03/19 20:28:32;;;;;;;33.92;20.52;;;;;;;12.93;65.55;100760.06;10112496;28;20167;-86
2024/03/19 20:33:32;;;;;;;36.00;21.13;;;;;;;12.93;65.49;100760.91;10089604;29;20063;-87
2024/03/19 20:38:33;;;;;;;35.42;20.55;;;;;;;12.89;65.98;100762.19;10083556;28;20523;-86
2024/03/19 20:43:34;;;;;;;32.05;22.13;;;;;;;12.87;66.16;100756.06;10091854;29;20055;-86
2024/03/19 20:48:35;;;;;;;36.53;22.98;;;;;;;12.80;67.03;100750.31;10128129;28;20506;-87
2024/03/19 20:53:36;;;;;;;40.15;23.63;;;;;;;12.69;67.84;100752.22;10131745;28;20059;-85
2024/03/19 20:58:39;;;;;;;35.20;21.30;;;;;;;12.55;68.90;100751.53;10162009;28;20050;-85
2024/03/19 21:03:40;;;;;;;35.42;20.25;;;;;;;12.43;69.44;100754.41;10169181;28;20099;-86
2024/03/19 21:08:42;;;;;;;39.88;22.23;;;;;;;12.30;70.02;100755.41;10116556;29;20048;-88
2024/03/19 21:13:43;;;;;;;38.50;23.42;;;;;;;12.22;70.96;100757.00;10139978;28;20823;-86
2024/03/19 21:18:44;;;;;;;43.22;24.83;;;;;;;12.17;70.97;100742.06;10146309;29;20051;-85
2024/03/19 21:23:45;;;;;;;39.47;25.58;;;;;;;12.12;71.26;100743.41;10118142;29;20051;-86
2024/03/19 21:28:45;;;;;;;42.88;24.90;;;;;;;12.01;71.65;100751.50;10098126;29;20464;-87
2024/03/19 21:33:46;;;;;;;36.05;23.45;;;;;;;11.92;72.33;100742.34;10139433;28;20126;-86
2024/03/19 21:38:47;;;;;;;38.30;22.10;;;;;;;11.86;72.72;100743.72;10142927;29;20104;-85
2024/03/19 21:43:48;;;;;;;39.00;22.73;;;;;;;11.81;72.65;100745.91;10143363;28;20072;-86
2024/03/19 21:48:49;;;;;;;45.63;24.97;;;;;;;11.77;73.08;100752.53;10151198;28;20070;-85
2024/03/19 21:53:50;;;;;;;39.90;22.83;;;;;;;11.67;73.26;100751.56;10181031;29;20047;-85
2024/03/19 21:58:52;;;;;;;39.50;23.10;;;;;;;11.59;73.66;100754.00;10170363;29;20092;-86
2024/03/19 22:03:53;;;;;;;43.00;22.97;;;;;;;11.53;73.83;100746.41;10164439;29;20052;-85
2024/03/19 22:08:55;;;;;;;38.28;23.75;;;;;;;11.48;74.30;100749.47;10161314;29;20142;-85
2024/03/19 22:13:56;;;;;;;41.53;23.67;;;;;;;11.41;74.34;100750.91;10175663;29;20094;-86
2024/03/19 22:18:57;;;;;;;36.65;22.25;;;;;;;11.38;74.76;100748.47;10155290;29;20175;-85
2024/03/19 22:23:58;;;;;;;40.50;24.52;;;;;;;11.33;74.84;100740.78;10197250;29;20055;-87
2024/03/19 22:28:59;;;;;;;37.72;23.00;;;;;;;11.33;75.07;100737.25;10175172;29;20052;-84
2024/03/19 22:34:00;;;;;;;36.95;22.60;;;;;;;11.33;74.77;100734.56;10204447;28;20055;-84
2024/03/19 22:39:07;;;;;;;33.88;22.45;;;;;;;11.29;74.83;100733.91;10184049;29;20048;-87
2024/03/19 22:44:08;;;;;;;37.15;23.40;;;;;;;11.27;74.41;100734.06;10171979;29;20048;-85